Time;durP1;ratioP1;P1;durP2;ratioP2;P2;SDS_P1;SDS_P2;PMS_P1;PMS_P2;Temp;Humidity;BMP_temperature;BMP_pressure;BME280_temperature;BME280_humidity;BME280_pressure;Samples;Min_cycle;Max_cycle;Signal;HPM_P1;HPM_P2
2022/12/25 00:01:25;;;;;;;;;;;;;;;;;;5094319;28;19924;-58
2022/12/25 00:03:51;;;;;;;;;;;;;;;;;;5089798;28;19977;-55
2022/12/25 00:06:19;;;;;;;;;;;;;;;;;;5071782;28;19928;-58
2022/12/25 00:08:46;;;;;;;;;;;;;;;;;;5071749;28;19931;-54
2022/12/25 00:11:14;;;;;;;;;;;;;;;;;;5071779;28;19924;-56
2022/12/25 00:13:41;;;;;;;;;;;;;;;;;;5071434;28;19929;-56
2022/12/25 00:16:08;;;;;;;;;;;;;;;;;;5071793;28;20297;-57
2022/12/25 00:18:35;;;;;;;;;;;;;;;;;;5075344;28;19929;-55
2022/12/25 00:21:02;;;;;;;;;;;;;;;;;;5075130;28;19985;-58
2022/12/25 00:23:29;;;;;;;;;;;;;;;;;;5075028;28;19924;-58
2022/12/25 00:25:57;;;;;;;;;;;;;;;;;;5075264;28;19928;-58
2022/12/25 00:28:24;;;;;;;;;;;;;;;;;;5075148;28;19932;-56
2022/12/25 00:30:51;;;;;;;;;;;;;;;;;;5075493;28;20243;-55
2022/12/25 00:33:18;;;;;;;;;;;;;;;;;;5074734;28;19986;-52
2022/12/25 00:35:44;;;;;;;;;;;;;;;;;;5075251;28;19932;-57
2022/12/25 00:38:11;;;;;;;;;;;;;;;;;;5074994;28;19979;-51
2022/12/25 00:40:46;;;;;;;;;;;;;;;;;;5074860;28;19925;-59
2022/12/25 00:43:14;;;;;;;;;;;;;;;;;;5074463;28;20343;-59
2022/12/25 00:45:41;;;;;;;;;;;;;;;;;;5091191;22;19932;-75
2022/12/25 00:48:07;;;;;;;;;;;;;;;;;;5075237;28;20023;-75
2022/12/25 00:50:34;;;;;;;;;;;;;;;;;;5074843;28;20391;-75
2022/12/25 00:53:00;;;;;;;;;;;;;;;;;;5074608;28;20302;-75
2022/12/25 00:55:27;;;;;;;;;;;;;;;;;;5063652;28;19972;-76
2022/12/25 00:57:53;;;;;;;;;;;;;;;;;;5054683;28;19925;-76
2022/12/25 01:00:23;;;;;;;;;;;;;;;;;;5055300;28;19964;-75
2022/12/25 01:02:49;;;;;;;;;;;;;;;;;;5055517;28;20016;-76
2022/12/25 01:05:16;;;;;;;;;;;;;;;;;;5056592;28;20012;-75
2022/12/25 01:07:42;;;;;;;;;;;;;;;;;;5056517;28;19986;-76
2022/12/25 01:12:53;;;;;;;;;;;;;;;;;;5054140;28;19928;-76
2022/12/25 01:15:21;;;;;;;;;;;;;;;;;;5054914;28;19931;-76
2022/12/25 01:17:48;;;;;;;;;;;;;;;;;;5055075;28;19980;-76
2022/12/25 01:20:15;;;;;;;;;;;;;;;;;;5055522;28;19982;-76
2022/12/25 01:22:41;;;;;;;;;;;;;;;;;;5055162;28;20019;-76
2022/12/25 01:25:09;;;;;;;;;;;;;;;;;;5054688;28;19968;-75
2022/12/25 01:27:35;;;;;;;;;;;;;;;;;;5053981;28;19925;-76
2022/12/25 01:30:02;;;;;;;;;;;;;;;;;;5054217;28;19960;-76
2022/12/25 01:32:30;;;;;;;;;;;;;;;;;;5054983;28;19960;-75
2022/12/25 01:34:56;;;;;;;;;;;;;;;;;;5056566;28;19925;-76
2022/12/25 01:37:23;;;;;;;;;;;;;;;;;;5056021;28;19931;-76
2022/12/25 01:39:50;;;;;;;;;;;;;;;;;;5055500;28;19983;-75
2022/12/25 01:42:17;;;;;;;;;;;;;;;;;;5055681;28;19975;-75
2022/12/25 01:45:02;;;;;;;;;;;;;;;;;;5054793;28;20004;-76
2022/12/25 01:47:30;;;;;;;;;;;;;;;;;;5054985;28;19972;-75
2022/12/25 01:49:56;;;;;;;;;;;;;;;;;;5055129;28;20023;-76
2022/12/25 01:52:24;;;;;;;;;;;;;;;;;;5055200;28;19968;-76
2022/12/25 01:54:52;;;;;;;;;;;;;;;;;;5055182;28;20016;-76
2022/12/25 01:57:21;;;;;;;;;;;;;;;;;;5054986;28;20027;-76
2022/12/25 01:59:47;;;;;;;;;;;;;;;;;;5054912;28;20376;-75
2022/12/25 02:02:14;;;;;;;;;;;;;;;;;;5054759;28;19932;-75
2022/12/25 02:04:45;;;;;;;;;;;;;;;;;;5045359;28;19957;-75
2022/12/25 02:07:13;;;;;;;;;;;;;;;;;;5035190;28;20020;-75
2022/12/25 02:09:40;;;;;;;;;;;;;;;;;;5035058;28;19964;-76
2022/12/25 02:12:07;;;;;;;;;;;;;;;;;;5036022;28;20578;-76
2022/12/25 02:14:35;;;;;;;;;;;;;;;;;;5035168;28;19972;-76
2022/12/25 02:17:05;;;;;;;;;;;;;;;;;;5035823;28;20032;-76
2022/12/25 02:19:41;;;;;;;;;;;;;;;;;;5034652;28;20003;-75
2022/12/25 02:22:15;;;;;;;;;;;;;;;;;;5034781;28;19929;-77
2022/12/25 02:24:47;;;;;;;;;;;;;;;;;;5033990;28;19968;-76
2022/12/25 02:27:18;;;;;;;;;;;;;;;;;;5034269;28;19964;-75
2022/12/25 02:29:49;;;;;;;;;;;;;;;;;;5033911;28;20031;-76
2022/12/25 02:32:19;;;;;;;;;;;;;;;;;;5033470;28;19931;-76
2022/12/25 02:34:50;;;;;;;;;;;;;;;;;;5033142;28;20024;-75
2022/12/25 02:37:19;;;;;;;;;;;;;;;;;;5034031;28;20019;-75
2022/12/25 02:39:57;;;;;;;;;;;;;;;;;;5037889;28;19990;-75
2022/12/25 03:06:41;;;;;;;;;;;;;;;;;;5038215;28;19932;-75
2022/12/25 03:07:14;;;;;;;;;;;;;;;;;;5052199;28;19994;-76
2022/12/25 03:13:09;;;;;;;;;;;;;;;;;;4951643;29;19926;-75
2022/12/25 03:18:23;;;;;;;;;;;;;;;;;;4998204;28;19937;-76
2022/12/25 03:29:03;;;;;;;;;;;;;;;;;;5032040;28;19932;-76
2022/12/25 03:31:32;;;;;;;;;;;;;;;;;;5032216;28;19931;-76
2022/12/25 03:37:02;;;;;;;;;;;;;;;;;;5032095;28;19931;-76
2022/12/25 03:42:43;;;;;;;;;;;;;;;;;;5031998;28;19932;-76
2022/12/25 04:37:17;;;;;;;;;;;;;;;;;;5055000;28;19947;-76
2022/12/25 04:39:45;;;;;;;;;;;;;;;;;;5054979;28;20015;-76
2022/12/25 04:42:12;;;;;;;;;;;;;;;;;;5054659;28;20015;-76
2022/12/25 04:44:38;;;;;;;;;;;;;;;;;;5054365;28;19925;-75
2022/12/25 04:47:05;;;;;;;;;;;;;;;;;;5054651;28;19925;-76
2022/12/25 04:49:31;;;;;;;;;;;;;;;;;;5055359;28;20020;-75
2022/12/25 04:51:57;;;;;;;;;;;;;;;;;;5055172;28;20372;-75
2022/12/25 04:54:24;;;;;;;;;;;;;;;;;;5054231;28;20299;-75
2022/12/25 04:56:52;;;;;;;;;;;;;;;;;;5054797;28;20347;-75
2022/12/25 04:59:18;;;;;;;;;;;;;;;;;;5054533;28;20415;-75
2022/12/25 05:01:45;;;;;;;;;;;;;;;;;;5054547;28;19929;-75
2022/12/25 05:04:11;;;;;;;;;;;;;;;;;;5047974;28;20426;-76
2022/12/25 05:06:37;;;;;;;;;;;;;;;;;;5034553;28;19968;-75
2022/12/25 05:09:04;;;;;;;;;;;;;;;;;;5034190;28;19964;-75
2022/12/25 05:11:30;;;;;;;;;;;;;;;;;;5034549;28;20016;-76
2022/12/25 05:13:58;;;;;;;;;;;;;;;;;;5034127;28;20004;-75
2022/12/25 05:16:25;;;;;;;;;;;;;;;;;;5034526;28;20012;-75
2022/12/25 05:18:51;;;;;;;;;;;;;;;;;;5034087;28;20394;-75
2022/12/25 05:21:18;;;;;;;;;;;;;;;;;;5034244;28;20580;-76
2022/12/25 05:23:48;;;;;;;;;;;;;;;;;;5033728;28;19976;-76
2022/12/25 05:26:15;;;;;;;;;;;;;;;;;;5034071;28;20434;-75
2022/12/25 05:28:41;;;;;;;;;;;;;;;;;;5036128;28;19931;-75
2022/12/25 05:31:09;;;;;;;;;;;;;;;;;;5036784;28;20019;-75
2022/12/25 05:33:35;;;;;;;;;;;;;;;;;;5034488;28;20123;-76
2022/12/25 05:36:02;;;;;;;;;;;;;;;;;;5033786;28;19931;-76
2022/12/25 05:38:28;;;;;;;;;;;;;;;;;;5033958;28;19961;-76
2022/12/25 05:40:55;;;;;;;;;;;;;;;;;;5033859;28;19960;-75
2022/12/25 05:43:22;;;;;;;;;;;;;;;;;;5033601;28;19957;-76
2022/12/25 05:45:49;;;;;;;;;;;;;;;;;;5033453;28;20535;-75
2022/12/25 05:48:17;;;;;;;;;;;;;;;;;;5033746;28;19975;-76
2022/12/25 05:50:43;;;;;;;;;;;;;;;;;;5033511;28;20013;-75
2022/12/25 05:53:11;;;;;;;;;;;;;;;;;;5033347;28;20159;-75
2022/12/25 05:55:39;;;;;;;;;;;;;;;;;;5033487;28;20015;-75
2022/12/25 05:58:06;;;;;;;;;;;;;;;;;;5033527;28;20007;-75
2022/12/25 06:00:32;;;;;;;;;;;;;;;;;;5033586;28;20019;-75
2022/12/25 06:02:59;;;;;;;;;;;;;;;;;;5033108;28;19991;-75
2022/12/25 06:05:27;;;;;;;;;;;;;;;;;;5047735;28;20442;-75
2022/12/25 06:07:53;;;;;;;;;;;;;;;;;;5053153;28;20007;-76
2022/12/25 06:10:20;;;;;;;;;;;;;;;;;;5053287;28;19979;-76
2022/12/25 06:12:46;;;;;;;;;;;;;;;;;;5052886;28;20016;-75
2022/12/25 06:15:13;;;;;;;;;;;;;;;;;;5052617;28;19924;-77
2022/12/25 06:17:39;;;;;;;;;;;;;;;;;;5052870;28;20362;-76
2022/12/25 06:20:06;;;;;;;;;;;;;;;;;;5053241;28;19936;-76
2022/12/25 06:22:34;;;;;;;;;;;;;;;;;;5052843;28;20012;-76
2022/12/25 06:25:01;;;;;;;;;;;;;;;;;;5052876;28;20031;-76
2022/12/25 06:27:28;;;;;;;;;;;;;;;;;;5052906;28;20364;-76
2022/12/25 06:29:54;;;;;;;;;;;;;;;;;;5052757;28;19925;-76
2022/12/25 06:32:21;;;;;;;;;;;;;;;;;;5052659;28;19928;-76
2022/12/25 06:34:47;;;;;;;;;;;;;;;;;;5052611;28;20019;-76
2022/12/25 06:37:14;;;;;;;;;;;;;;;;;;5052818;28;20051;-76
2022/12/25 06:39:41;;;;;;;;;;;;;;;;;;5052577;28;20008;-76
2022/12/25 06:42:08;;;;;;;;;;;;;;;;;;5052668;28;20387;-76
2022/12/25 06:47:04;;;;;;;;;;;;;;;;;;5068895;28;19947;-77
2022/12/25 06:49:31;;;;;;;;;;;;;;;;;;5073686;28;19924;-77
2022/12/25 06:51:57;;;;;;;;;;;;;;;;;;5073192;28;19924;-77
2022/12/25 06:54:24;;;;;;;;;;;;;;;;;;5072672;28;20011;-78
2022/12/25 06:56:51;;;;;;;;;;;;;;;;;;5054035;28;19931;-77
2022/12/25 06:59:18;;;;;;;;;;;;;;;;;;5052883;28;20450;-77
2022/12/25 07:01:46;;;;;;;;;;;;;;;;;;5053520;28;19994;-77
2022/12/25 07:04:15;;;;;;;;;;;;;;;;;;5052768;28;19987;-77
2022/12/25 07:06:41;;;;;;;;;;;;;;;;;;5053348;28;19925;-77
2022/12/25 07:09:08;;;;;;;;;;;;;;;;;;5052850;28;20015;-77
2022/12/25 07:11:34;;;;;;;;;;;;;;;;;;5053497;28;19971;-77
2022/12/25 07:14:02;;;;;;;;;;;;;;;;;;5052526;28;19972;-78
2022/12/25 07:16:29;;;;;;;;;;;;;;;;;;5052832;28;19976;-78
2022/12/25 07:18:55;;;;;;;;;;;;;;;;;;5052678;28;19983;-78
2022/12/25 07:21:21;;;;;;;;;;;;;;;;;;5053182;28;19925;-78
2022/12/25 07:23:49;;;;;;;;;;;;;;;;;;5052400;28;20008;-77
2022/12/25 07:26:16;;;;;;;;;;;;;;;;;;5052073;28;20032;-78
2022/12/25 07:28:43;;;;;;;;;;;;;;;;;;5053140;28;19929;-77
2022/12/25 07:31:12;;;;;;;;;;;;;;;;;;5053045;28;20378;-78
2022/12/25 07:33:39;;;;;;;;;;;;;;;;;;5052588;28;19931;-78
2022/12/25 07:36:06;;;;;;;;;;;;;;;;;;5053077;28;19972;-78
2022/12/25 07:38:33;;;;;;;;;;;;;;;;;;5052980;28;19924;-77
2022/12/25 07:40:59;;;;;;;;;;;;;;;;;;5052556;28;20011;-78
2022/12/25 07:43:26;;;;;;;;;;;;;;;;;;5052792;28;20019;-77
2022/12/25 07:45:56;;;;;;;;;;;;;;;;;;5052001;28;19972;-78
2022/12/25 07:48:24;;;;;;;;;;;;;;;;;;5053076;28;19925;-78
2022/12/25 07:50:55;;;;;;;;;;;;;;;;;;5052621;28;20322;-78
2022/12/25 07:53:21;;;;;;;;;;;;;;;;;;5052358;28;19972;-78
2022/12/25 07:55:48;;;;;;;;;;;;;;;;;;5054000;28;19972;-78
2022/12/25 07:58:14;;;;;;;;;;;;;;;;;;5054404;28;20021;-77
2022/12/25 08:00:40;;;;;;;;;;;;;;;;;;5053946;28;19967;-77
2022/12/25 08:03:07;;;;;;;;;;;;;;;;;;5053616;28;20470;-78
2022/12/25 08:05:35;;;;;;;;;;;;;;;;;;5052704;28;20008;-80
2022/12/25 08:08:01;;;;;;;;;;;;;;;;;;5052157;28;19925;-79
2022/12/25 08:10:28;;;;;;;;;;;;;;;;;;5052917;28;19972;-79
2022/12/25 08:12:55;;;;;;;;;;;;;;;;;;5052869;28;19960;-77
2022/12/25 08:15:22;;;;;;;;;;;;;;;;;;5052164;28;19987;-78
2022/12/25 08:17:48;;;;;;;;;;;;;;;;;;5052516;28;20016;-78
2022/12/25 08:20:15;;;;;;;;;;;;;;;;;;5052280;28;20007;-78
2022/12/25 08:22:42;;;;;;;;;;;;;;;;;;5051784;28;20011;-79
2022/12/25 08:25:09;;;;;;;;;;;;;;;;;;5052325;28;20007;-77
2022/12/25 08:27:35;;;;;;;;;;;;;;;;;;5052244;28;19971;-77
2022/12/25 08:30:02;;;;;;;;;;;;;;;;;;5052218;28;20399;-77
2022/12/25 08:32:28;;;;;;;;;;;;;;;;;;5052005;28;19947;-78
2022/12/25 08:34:55;;;;;;;;;;;;;;;;;;5052568;28;20007;-78
2022/12/25 08:37:21;;;;;;;;;;;;;;;;;;5053125;28;19964;-78
2022/12/25 08:39:49;;;;;;;;;;;;;;;;;;5055764;28;19992;-78
2022/12/25 08:42:15;;;;;;;;;;;;;;;;;;5055561;28;20012;-79
2022/12/25 08:44:42;;;;;;;;;;;;;;;;;;5055137;28;20020;-78
2022/12/25 08:47:08;;;;;;;;;;;;;;;;;;5055409;28;20016;-78
2022/12/25 08:49:35;;;;;;;;;;;;;;;;;;5055211;28;20418;-77
2022/12/25 08:52:01;;;;;;;;;;;;;;;;;;5063101;28;20418;-79
2022/12/25 08:54:30;;;;;;;;;;;;;;;;;;5067133;28;19925;-80
2022/12/25 08:56:58;;;;;;;;;;;;;;;;;;5065114;28;19932;-78
2022/12/25 08:59:25;;;;;;;;;;;;;;;;;;5064891;28;19932;-79
2022/12/25 09:01:51;;;;;;;;;;;;;;;;;;5068710;28;19984;-79
2022/12/25 09:04:17;;;;;;;;;;;;;;;;;;5069226;28;20387;-79
2022/12/25 09:06:44;;;;;;;;;;;;;;;;;;5069104;28;19932;-79
2022/12/25 09:09:10;;;;;;;;;;;;;;;;;;5069325;28;19929;-79
2022/12/25 09:11:37;;;;;;;;;;;;;;;;;;5070103;28;19960;-79
2022/12/25 09:14:05;;;;;;;;;;;;;;;;;;5069819;28;20010;-79
2022/12/25 09:16:31;;;;;;;;;;;;;;;;;;5070176;28;19929;-79
2022/12/25 09:18:58;;;;;;;;;;;;;;;;;;5070089;28;19925;-79
2022/12/25 09:21:24;;;;;;;;;;;;;;;;;;5070648;28;19925;-79
2022/12/25 09:23:51;;;;;;;;;;;;;;;;;;5069696;28;19929;-79
2022/12/25 09:26:18;;;;;;;;;;;;;;;;;;5069437;28;19925;-79
2022/12/25 09:28:45;;;;;;;;;;;;;;;;;;5069181;28;19925;-79
2022/12/25 09:31:13;;;;;;;;;;;;;;;;;;5069098;28;20011;-79
2022/12/25 09:33:39;;;;;;;;;;;;;;;;;;5069192;28;20439;-81
2022/12/25 09:36:06;;;;;;;;;;;;;;;;;;5069513;28;19925;-79
2022/12/25 09:38:33;;;;;;;;;;;;;;;;;;5069721;28;19924;-79
2022/12/25 09:41:00;;;;;;;;;;;;;;;;;;5068814;28;19925;-79
2022/12/25 09:43:28;;;;;;;;;;;;;;;;;;5068510;28;20315;-79
2022/12/25 09:45:56;;;;;;;;;;;;;;;;;;5069453;28;19931;-79
2022/12/25 09:48:24;;;;;;;;;;;;;;;;;;5070301;28;19929;-79
2022/12/25 09:50:53;;;;;;;;;;;;;;;;;;5068419;28;19987;-79
2022/12/25 09:53:21;;;;;;;;;;;;;;;;;;5069327;28;19925;-80
2022/12/25 09:55:50;;;;;;;;;;;;;;;;;;5068448;28;19935;-79
2022/12/25 09:58:16;;;;;;;;;;;;;;;;;;5070296;28;19947;-79
2022/12/25 10:00:45;;;;;;;;;;;;;;;;;;5070621;28;19924;-79
2022/12/25 10:03:17;;;;;;;;;;;;;;;;;;5069592;28;19978;-79
2022/12/25 10:05:51;;;;;;;;;;;;;;;;;;5069835;28;19996;-79
2022/12/25 10:08:22;;;;;;;;;;;;;;;;;;5070664;28;20458;-79
2022/12/25 10:10:50;;;;;;;;;;;;;;;;;;5070384;28;19975;-79
2022/12/25 10:13:24;;;;;;;;;;;;;;;;;;5070731;28;19932;-79
2022/12/25 10:15:54;;;;;;;;;;;;;;;;;;5071075;28;19925;-79
2022/12/25 10:18:27;;;;;;;;;;;;;;;;;;5068584;28;19956;-80
2022/12/25 10:20:56;;;;;;;;;;;;;;;;;;5067791;28;19924;-77
2022/12/25 10:23:23;;;;;;;;;;;;;;;;;;5062577;28;19936;-78
2022/12/25 10:25:52;;;;;;;;;;;;;;;;;;5062848;28;20453;-78
2022/12/25 10:28:22;;;;;;;;;;;;;;;;;;5061862;28;19925;-77
2022/12/25 10:30:50;;;;;;;;;;;;;;;;;;5060754;28;20016;-78
2022/12/25 10:33:16;;;;;;;;;;;;;;;;;;5066375;28;20008;-78
2022/12/25 10:35:42;;;;;;;;;;;;;;;;;;5062103;28;19953;-78
2022/12/25 10:38:12;;;;;;;;;;;;;;;;;;5058764;28;20405;-78
2022/12/25 10:40:46;;;;;;;;;;;;;;;;;;5059631;28;20008;-77
2022/12/25 10:43:13;;;;;;;;;;;;;;;;;;5061100;28;19964;-79
2022/12/25 10:45:43;;;;;;;;;;;;;;;;;;5065949;28;19924;-79
2022/12/25 10:48:14;;;;;;;;;;;;;;;;;;5065982;28;19924;-80
2022/12/25 10:50:42;;;;;;;;;;;;;;;;;;5066716;28;19924;-79
2022/12/25 10:53:17;;;;;;;;;;;;;;;;;;5067001;28;19960;-79
2022/12/25 10:55:53;;;;;;;;;;;;;;;;;;5067261;28;19971;-79
2022/12/25 10:58:20;;;;;;;;;;;;;;;;;;5067155;28;19931;-79
2022/12/25 11:00:51;;;;;;;;;;;;;;;;;;5067445;28;19924;-80
2022/12/25 11:03:20;;;;;;;;;;;;;;;;;;5066229;28;19931;-79
2022/12/25 11:05:49;;;;;;;;;;;;;;;;;;5067248;28;19931;-80
2022/12/25 11:08:20;;;;;;;;;;;;;;;;;;5067055;28;20535;-80
2022/12/25 11:10:52;;;;;;;;;;;;;;;;;;5068712;28;19925;-80
2022/12/25 11:13:19;;;;;;;;;;;;;;;;;;5065476;28;19971;-77
2022/12/25 11:15:47;;;;;;;;;;;;;;;;;;5066621;28;19932;-79
2022/12/25 11:18:19;;;;;;;;;;;;;;;;;;5066832;28;19978;-80
2022/12/25 11:20:49;;;;;;;;;;;;;;;;;;5066922;28;19931;-79
2022/12/25 11:23:19;;;;;;;;;;;;;;;;;;5067229;28;19931;-80
2022/12/25 11:25:54;;;;;;;;;;;;;;;;;;5066531;28;20359;-79
2022/12/25 11:28:20;;;;;;;;;;;;;;;;;;5066856;28;19929;-80
2022/12/25 11:30:49;;;;;;;;;;;;;;;;;;5067266;28;19924;-79
2022/12/25 11:33:17;;;;;;;;;;;;;;;;;;5067481;28;19925;-80
2022/12/25 11:35:46;;;;;;;;;;;;;;;;;;5066623;28;19925;-79
2022/12/25 11:38:13;;;;;;;;;;;;;;;;;;5066848;28;19936;-80
2022/12/25 11:40:44;;;;;;;;;;;;;;;;;;5066266;28;20387;-79
2022/12/25 11:43:12;;;;;;;;;;;;;;;;;;5066198;28;19934;-80
2022/12/25 11:45:41;;;;;;;;;;;;;;;;;;5066034;28;19932;-79
2022/12/25 11:48:13;;;;;;;;;;;;;;;;;;5066235;28;19978;-80
2022/12/25 11:50:41;;;;;;;;;;;;;;;;;;5066262;28;19960;-79
2022/12/25 11:53:11;;;;;;;;;;;;;;;;;;5066424;28;19947;-79
2022/12/25 11:55:41;;;;;;;;;;;;;;;;;;5067159;28;19924;-79
2022/12/25 11:58:13;;;;;;;;;;;;;;;;;;5066399;28;20510;-79
2022/12/25 12:00:41;;;;;;;;;;;;;;;;;;5066999;28;19963;-80
2022/12/25 12:03:13;;;;;;;;;;;;;;;;;;5066591;28;19925;-80
2022/12/25 12:05:43;;;;;;;;;;;;;;;;;;5066826;28;19952;-80
2022/12/25 12:08:12;;;;;;;;;;;;;;;;;;5063584;28;19932;-78
2022/12/25 12:10:44;;;;;;;;;;;;;;;;;;5064245;28;19925;-78
2022/12/25 12:13:23;;;;;;;;;;;;;;;;;;5067137;28;19932;-79
2022/12/25 12:15:50;;;;;;;;;;;;;;;;;;5069389;28;20379;-79
2022/12/25 12:18:21;;;;;;;;;;;;;;;;;;5069178;28;19931;-79
2022/12/25 12:20:57;;;;;;;;;;;;;;;;;;5069453;28;19931;-79
2022/12/25 12:23:24;;;;;;;;;;;;;;;;;;5070131;28;20420;-80
2022/12/25 12:25:50;;;;;;;;;;;;;;;;;;5069916;28;19964;-79
2022/12/25 12:28:22;;;;;;;;;;;;;;;;;;5068800;28;19935;-78
2022/12/25 12:30:56;;;;;;;;;;;;;;;;;;5068191;28;19929;-79
2022/12/25 12:33:23;;;;;;;;;;;;;;;;;;5068375;28;20362;-80
2022/12/25 12:35:50;;;;;;;;;;;;;;;;;;5068786;28;19992;-79
2022/12/25 12:38:17;;;;;;;;;;;;;;;;;;5069570;28;19925;-80
2022/12/25 12:40:51;;;;;;;;;;;;;;;;;;5069104;28;19987;-80
2022/12/25 12:43:27;;;;;;;;;;;;;;;;;;5068217;28;19925;-78
2022/12/25 12:45:55;;;;;;;;;;;;;;;;;;5068281;28;19929;-79
2022/12/25 12:48:24;;;;;;;;;;;;;;;;;;5063220;28;19935;-79
2022/12/25 12:51:01;;;;;;;;;;;;;;;;;;5057806;28;19987;-80
2022/12/25 12:53:28;;;;;;;;;;;;;;;;;;5056974;28;19968;-79
2022/12/25 12:55:55;;;;;;;;;;;;;;;;;;5057726;28;20275;-80
2022/12/25 12:58:29;;;;;;;;;;;;;;;;;;5057632;28;20066;-80
2022/12/25 13:01:00;;;;;;;;;;;;;;;;;;5057761;28;19990;-79
2022/12/25 13:03:32;;;;;;;;;;;;;;;;;;5056748;28;19925;-80
2022/12/25 13:06:02;;;;;;;;;;;;;;;;;;5056414;28;20272;-79
2022/12/25 13:08:34;;;;;;;;;;;;;;;;;;5057023;28;19935;-81
2022/12/25 13:11:05;;;;;;;;;;;;;;;;;;5056665;28;19971;-79
2022/12/25 13:13:36;;;;;;;;;;;;;;;;;;5055341;28;20554;-80
2022/12/25 13:16:03;;;;;;;;;;;;;;;;;;5056608;28;19976;-79
2022/12/25 13:18:30;;;;;;;;;;;;;;;;;;5057414;28;19925;-79
2022/12/25 13:20:58;;;;;;;;;;;;;;;;;;5057615;28;19975;-80
2022/12/25 13:23:27;;;;;;;;;;;;;;;;;;5056477;28;20012;-80
2022/12/25 13:25:54;;;;;;;;;;;;;;;;;;5056510;28;19960;-80
2022/12/25 13:28:24;;;;;;;;;;;;;;;;;;5056953;28;20391;-80
2022/12/25 13:30:52;;;;;;;;;;;;;;;;;;5057461;28;20007;-80
2022/12/25 13:33:19;;;;;;;;;;;;;;;;;;5055918;28;19935;-78
2022/12/25 13:35:46;;;;;;;;;;;;;;;;;;5056764;28;19925;-80
2022/12/25 13:38:15;;;;;;;;;;;;;;;;;;5056908;28;19979;-79
2022/12/25 13:42:04;;;;;;;;;;;;;;;;;;5056562;28;20008;-80
2022/12/25 13:43:33;;;;;;;;;;;;;;;;;;5056014;28;19928;-78
2022/12/25 13:46:01;;;;;;;;;;;;;;;;;;5054563;28;20015;-81
2022/12/25 13:48:27;;;;;;;;;;;;;;;;;;5055437;28;19964;-79
2022/12/25 13:50:57;;;;;;;;;;;;;;;;;;5055649;28;19972;-79
2022/12/25 13:53:24;;;;;;;;;;;;;;;;;;5054985;28;20116;-79
2022/12/25 13:55:52;;;;;;;;;;;;;;;;;;5055427;28;19970;-78
2022/12/25 13:58:22;;;;;;;;;;;;;;;;;;5056489;28;19925;-80
2022/12/25 14:00:49;;;;;;;;;;;;;;;;;;5056730;28;19925;-81
2022/12/25 14:03:19;;;;;;;;;;;;;;;;;;5055747;28;20011;-79
2022/12/25 14:05:45;;;;;;;;;;;;;;;;;;5055291;28;19972;-78
2022/12/25 14:08:13;;;;;;;;;;;;;;;;;;5054659;28;19976;-78
2022/12/25 14:10:40;;;;;;;;;;;;;;;;;;5054625;28;20008;-78
2022/12/25 14:13:08;;;;;;;;;;;;;;;;;;5054452;28;20015;-79
2022/12/25 14:15:36;;;;;;;;;;;;;;;;;;5055484;28;19925;-79
2022/12/25 14:18:03;;;;;;;;;;;;;;;;;;5055172;28;19925;-79
2022/12/25 14:20:40;;;;;;;;;;;;;;;;;;5055612;28;19974;-78
2022/12/25 14:23:07;;;;;;;;;;;;;;;;;;5054026;28;19968;-79
2022/12/25 14:25:35;;;;;;;;;;;;;;;;;;5055012;28;19931;-79
2022/12/25 14:28:06;;;;;;;;;;;;;;;;;;5054667;28;20024;-79
2022/12/25 14:30:32;;;;;;;;;;;;;;;;;;5055073;28;19924;-79
2022/12/25 14:33:01;;;;;;;;;;;;;;;;;;5054630;28;19975;-78
2022/12/25 14:35:28;;;;;;;;;;;;;;;;;;5054224;28;19925;-79
2022/12/25 14:37:58;;;;;;;;;;;;;;;;;;5055262;28;19929;-79
2022/12/25 14:40:26;;;;;;;;;;;;;;;;;;5056253;28;20302;-79
2022/12/25 14:42:56;;;;;;;;;;;;;;;;;;5061467;28;19924;-80
2022/12/25 14:45:27;;;;;;;;;;;;;;;;;;5060942;28;19947;-78
2022/12/25 14:47:54;;;;;;;;;;;;;;;;;;5061537;28;19973;-78
2022/12/25 14:50:25;;;;;;;;;;;;;;;;;;5061970;28;19951;-79
2022/12/25 14:52:52;;;;;;;;;;;;;;;;;;5061212;28;19979;-78
2022/12/25 14:55:20;;;;;;;;;;;;;;;;;;5061338;28;19931;-79
2022/12/25 14:57:48;;;;;;;;;;;;;;;;;;5060689;28;19925;-78
2022/12/25 15:00:21;;;;;;;;;;;;;;;;;;5060042;28;19928;-78
2022/12/25 15:02:47;;;;;;;;;;;;;;;;;;5061239;28;19925;-78
2022/12/25 15:05:25;;;;;;;;;;;;;;;;;;5055939;28;20573;-79
2022/12/25 15:07:59;;;;;;;;;;;;;;;;;;5054377;28;20016;-78
2022/12/25 15:10:27;;;;;;;;;;;;;;;;;;5054044;28;19925;-79
2022/12/25 15:12:54;;;;;;;;;;;;;;;;;;5054465;28;19925;-79
2022/12/25 15:15:20;;;;;;;;;;;;;;;;;;5054794;28;19978;-78
2022/12/25 15:17:47;;;;;;;;;;;;;;;;;;5054956;28;20474;-79
2022/12/25 15:20:13;;;;;;;;;;;;;;;;;;5054485;28;19925;-79
2022/12/25 15:22:42;;;;;;;;;;;;;;;;;;5053523;28;19924;-79
2022/12/25 15:25:10;;;;;;;;;;;;;;;;;;5053781;28;20346;-79
2022/12/25 15:27:37;;;;;;;;;;;;;;;;;;5058596;28;19974;-79
2022/12/25 15:30:05;;;;;;;;;;;;;;;;;;5057246;28;19928;-79
2022/12/25 15:32:32;;;;;;;;;;;;;;;;;;5055195;28;19931;-79
2022/12/25 15:34:58;;;;;;;;;;;;;;;;;;5058032;28;19980;-78
2022/12/25 15:37:25;;;;;;;;;;;;;;;;;;5058767;28;20447;-78
2022/12/25 15:39:51;;;;;;;;;;;;;;;;;;5059918;28;20423;-79
2022/12/25 15:42:18;;;;;;;;;;;;;;;;;;5059617;28;19964;-78
2022/12/25 15:44:46;;;;;;;;;;;;;;;;;;5060046;28;19925;-78
2022/12/25 15:47:13;;;;;;;;;;;;;;;;;;5061336;28;21828;-78
2022/12/25 15:49:40;;;;;;;;;;;;;;;;;;5064727;28;19947;-78
2022/12/25 15:52:07;;;;;;;;;;;;;;;;;;5064224;28;19968;-78
2022/12/25 15:54:34;;;;;;;;;;;;;;;;;;5064600;28;20366;-78
2022/12/25 15:57:01;;;;;;;;;;;;;;;;;;5065498;28;20538;-78
2022/12/25 15:59:28;;;;;;;;;;;;;;;;;;5065491;28;19924;-78
2022/12/25 16:01:56;;;;;;;;;;;;;;;;;;5064560;28;19999;-78
2022/12/25 16:04:24;;;;;;;;;;;;;;;;;;5061264;28;19924;-77
2022/12/25 16:06:50;;;;;;;;;;;;;;;;;;5069507;28;19932;-79
2022/12/25 16:09:18;;;;;;;;;;;;;;;;;;5067027;28;19975;-78
2022/12/25 16:11:45;;;;;;;;;;;;;;;;;;5064925;28;19992;-78
2022/12/25 16:14:11;;;;;;;;;;;;;;;;;;5064057;28;19924;-78
2022/12/25 16:16:38;;;;;;;;;;;;;;;;;;5064534;28;19932;-78
2022/12/25 16:19:06;;;;;;;;;;;;;;;;;;5063505;28;19924;-78
2022/12/25 16:21:36;;;;;;;;;;;;;;;;;;5066845;28;20437;-77
2022/12/25 16:24:03;;;;;;;;;;;;;;;;;;5064292;28;19968;-79
2022/12/25 16:26:32;;;;;;;;;;;;;;;;;;5062383;28;19964;-77
2022/12/25 16:28:58;;;;;;;;;;;;;;;;;;5059653;28;19948;-77
2022/12/25 16:31:25;;;;;;;;;;;;;;;;;;5059148;28;19925;-78
2022/12/25 16:33:52;;;;;;;;;;;;;;;;;;5059227;28;19932;-77
2022/12/25 16:36:20;;;;;;;;;;;;;;;;;;5059796;28;20390;-77
2022/12/25 16:38:46;;;;;;;;;;;;;;;;;;5062649;28;19963;-77
2022/12/25 16:41:13;;;;;;;;;;;;;;;;;;5060743;28;20023;-78
2022/12/25 16:43:39;;;;;;;;;;;;;;;;;;5058173;28;20395;-78
2022/12/25 16:46:08;;;;;;;;;;;;;;;;;;5057015;28;20195;-79
2022/12/25 16:48:35;;;;;;;;;;;;;;;;;;5057102;28;20395;-79
2022/12/25 16:51:07;;;;;;;;;;;;;;;;;;5061331;28;19925;-78
2022/12/25 16:53:35;;;;;;;;;;;;;;;;;;5063258;28;19972;-78
2022/12/25 16:56:04;;;;;;;;;;;;;;;;;;5059760;28;20446;-78
2022/12/25 16:58:31;;;;;;;;;;;;;;;;;;5056775;28;20016;-79
2022/12/25 17:01:03;;;;;;;;;;;;;;;;;;5057374;28;19968;-79
2022/12/25 17:03:30;;;;;;;;;;;;;;;;;;5057832;28;19925;-79
2022/12/25 17:05:57;;;;;;;;;;;;;;;;;;5057500;28;20015;-79
2022/12/25 17:08:23;;;;;;;;;;;;;;;;;;5057307;28;20410;-80
2022/12/25 17:10:51;;;;;;;;;;;;;;;;;;5057469;28;20414;-80
2022/12/25 17:13:18;;;;;;;;;;;;;;;;;;5057158;28;19925;-80
2022/12/25 17:15:44;;;;;;;;;;;;;;;;;;5057048;28;19975;-79
2022/12/25 17:18:10;;;;;;;;;;;;;;;;;;5057251;28;20363;-79
2022/12/25 17:20:37;;;;;;;;;;;;;;;;;;5057108;28;19963;-80
2022/12/25 17:23:04;;;;;;;;;;;;;;;;;;5057619;28;20336;-79
2022/12/25 17:25:30;;;;;;;;;;;;;;;;;;5057126;28;19935;-80
2022/12/25 17:27:58;;;;;;;;;;;;;;;;;;5057350;28;20016;-80
2022/12/25 17:30:24;;;;;;;;;;;;;;;;;;5056866;28;20395;-79
2022/12/25 17:32:51;;;;;;;;;;;;;;;;;;5056967;28;19924;-79
2022/12/25 17:35:20;;;;;;;;;;;;;;;;;;5056489;28;19960;-80
2022/12/25 17:37:46;;;;;;;;;;;;;;;;;;5056999;28;19929;-81
2022/12/25 17:40:13;;;;;;;;;;;;;;;;;;5057408;28;19948;-80
2022/12/25 17:42:39;;;;;;;;;;;;;;;;;;5063434;28;19967;-79
2022/12/25 17:45:08;;;;;;;;;;;;;;;;;;5064838;28;19992;-79
2022/12/25 17:47:34;;;;;;;;;;;;;;;;;;5063917;28;20370;-79
2022/12/25 17:50:01;;;;;;;;;;;;;;;;;;5065113;28;20367;-80
2022/12/25 17:52:27;;;;;;;;;;;;;;;;;;5062789;28;19924;-78
2022/12/25 17:54:54;;;;;;;;;;;;;;;;;;5063907;28;19925;-77
2022/12/25 17:57:20;;;;;;;;;;;;;;;;;;5063048;28;19928;-78
2022/12/25 17:59:47;;;;;;;;;;;;;;;;;;5062847;28;19971;-78
2022/12/25 18:02:14;;;;;;;;;;;;;;;;;;5062978;28;19960;-78
2022/12/25 18:04:41;;;;;;;;;;;;;;;;;;5057235;28;19964;-80
2022/12/25 18:07:07;;;;;;;;;;;;;;;;;;5055317;28;19987;-79
2022/12/25 18:09:34;;;;;;;;;;;;;;;;;;5056024;28;19960;-79
2022/12/25 18:12:00;;;;;;;;;;;;;;;;;;5056015;28;19924;-79
2022/12/25 18:14:27;;;;;;;;;;;;;;;;;;5055951;28;19964;-78
2022/12/25 18:16:53;;;;;;;;;;;;;;;;;;5055712;28;20352;-80
2022/12/25 18:19:21;;;;;;;;;;;;;;;;;;5056814;28;19964;-79
2022/12/25 18:21:47;;;;;;;;;;;;;;;;;;5061368;28;20307;-79
2022/12/25 18:24:14;;;;;;;;;;;;;;;;;;5058907;28;19932;-78
2022/12/25 18:26:40;;;;;;;;;;;;;;;;;;5056647;28;19931;-80
2022/12/25 18:29:07;;;;;;;;;;;;;;;;;;5055547;28;19994;-80
2022/12/25 18:31:33;;;;;;;;;;;;;;;;;;5056333;28;20039;-80